createdAt,value
2022-09-25T00:01:27.547Z,84.48
2022-09-25T00:03:55.867Z,85.22
2022-09-25T00:06:25.336Z,85.29
2022-09-25T00:08:54.072Z,85.01
2022-09-25T00:11:24.938Z,85.09
2022-09-25T00:13:53.651Z,85.23
2022-09-25T00:16:23.652Z,85.46
2022-09-25T00:19:11.070Z,85.83
2022-09-25T00:21:39.774Z,84.66
2022-09-25T00:24:09.996Z,85.41
2022-09-25T00:26:40.385Z,85.32
2022-09-25T00:29:10.782Z,85.42
2022-09-25T00:31:38.922Z,86.17
2022-09-25T00:34:08.636Z,85.70
2022-09-25T00:36:36.806Z,85.58
2022-09-25T00:39:05.285Z,85.77
2022-09-25T00:41:33.670Z,85.85
2022-09-25T00:44:03.818Z,85.90
2022-09-25T00:46:36.237Z,85.90
2022-09-25T00:49:08.526Z,85.90
2022-09-25T00:51:41.349Z,85.46
2022-09-25T00:54:12.664Z,85.62
2022-09-25T00:56:44.031Z,85.92
2022-09-25T00:59:14.588Z,85.72
2022-09-25T01:01:42.782Z,85.71
2022-09-25T01:04:13.150Z,85.13
2022-09-25T01:06:42.033Z,85.68
2022-09-25T01:09:10.296Z,85.37
2022-09-25T01:11:38.676Z,85.17
2022-09-25T01:14:07.473Z,85.73
2022-09-25T01:16:39.813Z,86.20
2022-09-25T01:19:17.161Z,86.14
2022-09-25T01:21:49.529Z,86.76
2022-09-25T01:24:41.015Z,86.93
2022-09-25T01:27:35.961Z,86.83
2022-09-25T01:30:10.867Z,86.91
2022-09-25T01:32:46.229Z,86.67
2022-09-25T01:35:18.046Z,86.94
2022-09-25T01:37:47.549Z,86.79
2022-09-25T01:40:19.724Z,86.71
2022-09-25T01:42:50.761Z,86.92
2022-09-25T01:45:22.414Z,87.39
2022-09-25T01:47:52.107Z,87.32
2022-09-25T01:50:24.090Z,87.55
2022-09-25T01:52:54.623Z,88.05
2022-09-25T01:55:25.459Z,88.03
2022-09-25T01:57:58.281Z,87.82
2022-09-25T02:00:27.847Z,87.73
2022-09-25T02:02:58.919Z,88.47
2022-09-25T02:05:31.110Z,88.50
2022-09-25T02:08:02.126Z,88.84
2022-09-25T02:10:34.834Z,89.06
2022-09-25T02:13:08.689Z,88.95
2022-09-25T02:15:39.779Z,88.16
2022-09-25T02:18:27.667Z,88.18
2022-09-25T02:21:00.106Z,88.89
2022-09-25T02:23:31.739Z,88.61
2022-09-25T02:26:06.197Z,89.16
2022-09-25T02:28:35.106Z,89.74
2022-09-25T02:31:08.461Z,90.14
2022-09-25T02:33:37.136Z,90.74
2022-09-25T02:36:07.218Z,90.45
2022-09-25T02:38:36.542Z,91.24
2022-09-25T02:41:15.024Z,90.67
2022-09-25T02:43:49.347Z,90.18
2022-09-25T02:46:25.812Z,90.58
2022-09-25T02:48:57.473Z,90.09
2022-09-25T02:51:30.809Z,90.29
2022-09-25T02:54:07.827Z,89.91
2022-09-25T02:56:38.772Z,90.41
2022-09-25T02:59:09.305Z,90.76
2022-09-25T03:01:40.881Z,90.87
2022-09-25T03:04:10.034Z,90.25
2022-09-25T03:06:38.853Z,90.71
2022-09-25T03:09:08.945Z,90.65
2022-09-25T03:11:43.339Z,89.88
2022-09-25T03:14:12.039Z,90.32
2022-09-25T03:16:46.725Z,90.05
2022-09-25T03:19:15.188Z,89.93
2022-09-25T03:21:43.665Z,90.27
2022-09-25T03:24:11.873Z,90.01
2022-09-25T03:26:40.607Z,90.14
2022-09-25T03:29:09.161Z,91.39
2022-09-25T03:31:37.569Z,91.58
2022-09-25T03:34:07.111Z,91.77
2022-09-25T03:36:35.811Z,91.64
2022-09-25T03:39:04.608Z,91.57
2022-09-25T03:41:35.437Z,91.49
2022-09-25T03:44:04.153Z,91.88
2022-09-25T03:46:34.018Z,91.19
2022-09-25T03:49:02.987Z,91.47
2022-09-25T03:51:33.400Z,90.98
2022-09-25T03:54:01.614Z,90.93
2022-09-25T03:56:30.347Z,91.87
2022-09-25T03:58:59.840Z,92.02
2022-09-25T04:01:29.629Z,92.42
2022-09-25T04:03:58.259Z,92.37
2022-09-25T04:06:27.368Z,92.23
2022-09-25T04:08:56.902Z,92.23
2022-09-25T04:11:26.203Z,92.32
2022-09-25T04:13:54.276Z,92.67
2022-09-25T04:16:22.631Z,91.91
2022-09-25T04:18:51.350Z,91.42
2022-09-25T04:21:19.625Z,91.90
2022-09-25T04:24:07.909Z,91.92
2022-09-25T04:26:37.582Z,92.40
2022-09-25T04:29:05.859Z,92.16
2022-09-25T04:31:34.957Z,93.37
2022-09-25T04:34:02.232Z,93.43
2022-09-25T04:36:30.492Z,93.44
2022-09-25T04:38:58.691Z,93.94
2022-09-25T04:41:27.127Z,93.47
2022-09-25T04:43:56.639Z,93.46
2022-09-25T04:46:24.780Z,94.63
2022-09-25T04:48:53.021Z,94.91
2022-09-25T04:51:22.080Z,94.91
2022-09-25T04:53:50.332Z,95.63
2022-09-25T04:56:18.360Z,95.51
2022-09-25T04:58:47.517Z,94.72
2022-09-25T05:01:19.081Z,94.70
2022-09-25T05:03:49.278Z,94.85
2022-09-25T05:06:17.491Z,94.22
2022-09-25T05:08:45.551Z,94.51
2022-09-25T05:11:13.721Z,93.72
2022-09-25T05:13:46.884Z,93.60
2022-09-25T05:16:15.238Z,93.99
2022-09-25T05:18:44.708Z,93.29
2022-09-25T05:21:13.096Z,93.25
2022-09-25T05:23:41.294Z,93.59
2022-09-25T05:26:11.201Z,93.17
2022-09-25T05:28:39.424Z,93.29
2022-09-25T05:31:07.778Z,93.79
2022-09-25T05:33:36.524Z,93.78
2022-09-25T05:36:07.736Z,92.51
2022-09-25T05:38:37.277Z,93.42
2022-09-25T05:41:06.859Z,93.04
2022-09-25T05:43:36.034Z,93.01
2022-09-25T05:46:04.207Z,92.44
2022-09-25T05:48:32.430Z,93.06
2022-09-25T05:51:00.621Z,92.78
2022-09-25T05:53:31.089Z,93.08
2022-09-25T05:56:01.163Z,94.29
2022-09-25T05:58:31.271Z,93.02
2022-09-25T06:01:02.118Z,91.98
2022-09-25T06:03:30.383Z,92.17
2022-09-25T06:05:58.564Z,91.22
2022-09-25T06:08:27.465Z,91.16
2022-09-25T06:11:00.935Z,90.63
2022-09-25T06:13:31.267Z,90.41
2022-09-25T06:15:59.460Z,90.12
2022-09-25T06:18:28.286Z,90.85
2022-09-25T06:21:01.621Z,90.29
2022-09-25T06:23:29.948Z,90.43
2022-09-25T06:26:03.075Z,90.08
2022-09-25T06:28:31.535Z,89.26
2022-09-25T06:31:01.580Z,89.00
2022-09-25T06:33:30.089Z,88.79
2022-09-25T06:35:58.244Z,89.65
2022-09-25T06:38:26.477Z,89.41
2022-09-25T06:40:59.300Z,89.32
2022-09-25T06:43:30.179Z,88.36
2022-09-25T06:46:02.612Z,88.82
2022-09-25T06:48:31.054Z,88.17
2022-09-25T06:50:59.857Z,88.21
2022-09-25T06:53:28.410Z,87.63
2022-09-25T06:55:59.003Z,87.43
2022-09-25T06:58:30.513Z,87.54
2022-09-25T07:00:59.058Z,87.77
2022-09-25T07:03:44.452Z,86.97
2022-09-25T07:06:14.267Z,86.31
2022-09-25T07:08:43.869Z,86.15
2022-09-25T07:11:14.387Z,86.34
2022-09-25T07:13:45.121Z,86.62
2022-09-25T07:16:15.308Z,87.00
2022-09-25T07:18:44.911Z,87.70
2022-09-25T07:21:14.802Z,87.97
2022-09-25T07:23:43.219Z,88.27
2022-09-25T07:26:13.044Z,88.02
2022-09-25T07:28:43.812Z,87.25
2022-09-25T07:31:16.457Z,87.87
2022-09-25T07:33:45.122Z,87.71
2022-09-25T07:36:13.931Z,86.86
2022-09-25T07:38:42.238Z,87.06
2022-09-25T07:41:13.137Z,86.99
2022-09-25T07:43:43.535Z,86.37
2022-09-25T07:46:12.288Z,85.15
2022-09-25T07:48:40.450Z,84.99
2022-09-25T07:51:11.888Z,85.08
2022-09-25T07:53:40.761Z,84.62
2022-09-25T07:56:09.324Z,84.29
2022-09-25T07:58:37.516Z,83.80
2022-09-25T08:01:08.577Z,83.55
2022-09-25T08:03:36.862Z,82.88
2022-09-25T08:06:06.657Z,82.90
2022-09-25T08:08:35.493Z,83.20
2022-09-25T08:11:03.922Z,82.86
2022-09-25T08:13:33.504Z,82.13
2022-09-25T08:16:03.433Z,81.58
2022-09-25T08:18:33.072Z,81.93
2022-09-25T08:21:02.903Z,81.80
2022-09-25T08:23:31.455Z,81.55
2022-09-25T08:25:59.761Z,81.42
2022-09-25T08:28:28.000Z,81.36
2022-09-25T08:30:56.172Z,80.52
2022-09-25T08:33:24.296Z,80.03
2022-09-25T08:35:58.571Z,79.83
2022-09-25T08:38:27.021Z,80.00
2022-09-25T08:40:57.806Z,80.76
2022-09-25T08:43:27.154Z,80.36
2022-09-25T08:46:14.257Z,80.74
2022-09-25T08:49:03.366Z,80.90
2022-09-25T08:51:34.424Z,81.88
2022-09-25T08:54:03.809Z,81.26
2022-09-25T08:56:33.296Z,81.67
2022-09-25T08:59:05.784Z,82.65
2022-09-25T09:01:43.786Z,82.55
2022-09-25T09:04:18.212Z,82.43
2022-09-25T09:07:24.668Z,82.49
2022-09-25T09:09:48.744Z,83.06
2022-09-25T09:12:21.402Z,82.93
2022-09-25T09:14:53.781Z,82.91
2022-09-25T09:17:26.277Z,82.30
2022-09-25T09:20:14.058Z,82.00
2022-09-25T09:22:48.848Z,81.60
2022-09-25T09:25:29.679Z,81.75
2022-09-25T09:28:20.905Z,81.55
2022-09-25T09:30:57.457Z,81.78
2022-09-25T09:33:35.937Z,82.38
2022-09-25T09:36:09.937Z,82.10
2022-09-25T09:38:49.574Z,81.57
2022-09-25T09:41:33.562Z,81.63
2022-09-25T09:44:12.366Z,81.76
2022-09-25T09:46:48.724Z,81.89
2022-09-25T09:49:21.489Z,81.89
2022-09-25T09:51:55.686Z,81.27
2022-09-25T09:54:32.973Z,80.97
2022-09-25T09:57:06.509Z,81.47
2022-09-25T09:59:43.172Z,80.91
2022-09-25T10:02:22.119Z,80.65
2022-09-25T10:04:51.055Z,80.59
2022-09-25T10:07:22.806Z,80.65
2022-09-25T10:09:52.533Z,81.00
2022-09-25T10:12:29.197Z,80.71
2022-09-25T10:14:58.924Z,80.60
2022-09-25T10:17:29.879Z,80.58
2022-09-25T10:19:59.793Z,80.23
2022-09-25T10:22:28.775Z,79.73
2022-09-25T10:25:02.202Z,79.88
2022-09-25T10:27:32.964Z,78.86
2022-09-25T10:30:22.563Z,77.96
2022-09-25T10:32:58.595Z,77.59
2022-09-25T10:35:29.454Z,77.12
2022-09-25T10:37:59.631Z,77.89
2022-09-25T10:40:32.787Z,77.97
2022-09-25T10:43:17.070Z,77.87
2022-09-25T10:45:45.618Z,78.55
2022-09-25T10:48:50.249Z,77.37
2022-09-25T10:51:21.514Z,77.68
2022-09-25T10:53:50.736Z,77.69
2022-09-25T10:56:22.067Z,78.18
2022-09-25T10:58:54.993Z,78.54
2022-09-25T11:01:31.742Z,78.20
2022-09-25T11:04:00.221Z,79.03
2022-09-25T11:06:29.885Z,79.56
2022-09-25T11:09:09.198Z,79.00
2022-09-25T11:11:39.412Z,79.88
2022-09-25T11:14:14.945Z,80.03
2022-09-25T11:16:46.878Z,79.68
2022-09-25T11:19:17.145Z,79.86
2022-09-25T11:21:50.147Z,79.57
2022-09-25T11:24:23.822Z,79.19
2022-09-25T11:26:59.269Z,79.42
2022-09-25T11:29:44.421Z,79.46
2022-09-25T11:32:19.964Z,79.24
2022-09-25T11:35:24.562Z,77.84
2022-09-25T11:38:02.671Z,78.89
2022-09-25T11:40:53.262Z,79.38
2022-09-25T11:43:30.517Z,79.47
2022-09-25T11:46:02.796Z,78.24
2022-09-25T11:48:37.396Z,78.41
2022-09-25T11:51:11.744Z,78.96
2022-09-25T11:53:46.108Z,78.99
2022-09-25T11:56:23.770Z,78.68
2022-09-25T11:59:02.140Z,76.92
2022-09-25T12:01:34.666Z,78.23
2022-09-25T12:04:39.439Z,79.09
2022-09-25T12:07:34.664Z,78.91
2022-09-25T12:10:16.249Z,78.91
2022-09-25T12:12:53.327Z,79.22
2022-09-25T12:15:27.121Z,78.74
2022-09-25T12:18:03.814Z,77.66
2022-09-25T12:20:36.236Z,77.78
2022-09-25T12:23:16.332Z,78.13
2022-09-25T12:25:59.866Z,78.28
2022-09-25T12:28:33.568Z,78.50
2022-09-25T12:31:09.110Z,78.62
2022-09-25T12:33:44.813Z,78.48
2022-09-25T12:36:16.864Z,78.24
2022-09-25T12:38:49.198Z,78.44
2022-09-25T12:41:20.656Z,78.25
2022-09-25T12:43:53.178Z,77.80
2022-09-25T12:46:27.040Z,76.77
2022-09-25T12:48:59.425Z,76.11
2022-09-25T12:51:34.213Z,75.83
2022-09-25T12:54:05.529Z,75.67
2022-09-25T12:56:38.508Z,74.89
2022-09-25T12:59:13.737Z,74.49
2022-09-25T13:01:46.791Z,75.81
2022-09-25T13:04:26.039Z,74.64
2022-09-25T13:06:58.234Z,74.77
2022-09-25T13:09:32.145Z,75.03
2022-09-25T13:12:04.139Z,74.67
2022-09-25T13:14:35.843Z,73.64
2022-09-25T13:17:05.397Z,74.66
2022-09-25T13:19:34.843Z,74.63
2022-09-25T13:22:05.831Z,74.17
2022-09-25T13:24:40.458Z,75.06
2022-09-25T13:27:15.072Z,74.67
2022-09-25T13:29:43.458Z,74.35
2022-09-25T13:32:19.062Z,73.13
2022-09-25T13:34:47.620Z,72.76
2022-09-25T13:37:16.814Z,72.95
2022-09-25T13:40:07.489Z,73.27
2022-09-25T13:42:38.503Z,72.95
2022-09-25T13:45:32.418Z,73.20
2022-09-25T13:48:10.083Z,74.17
2022-09-25T13:50:40.436Z,74.11
2022-09-25T13:53:23.469Z,75.02
2022-09-25T13:56:15.040Z,74.95
2022-09-25T13:59:03.692Z,76.93
2022-09-25T14:01:37.722Z,77.36
2022-09-25T14:04:12.166Z,76.94
2022-09-25T14:06:42.180Z,77.12
2022-09-25T14:09:15.206Z,77.36
2022-09-25T14:11:45.699Z,77.13
2022-09-25T14:14:27.459Z,77.37
2022-09-25T14:16:58.523Z,77.06
2022-09-25T14:19:32.079Z,76.70
2022-09-25T14:22:01.842Z,77.93
2022-09-25T14:24:31.358Z,77.68
2022-09-25T14:27:01.217Z,78.57
2022-09-25T14:29:32.868Z,79.49
2022-09-25T14:32:25.839Z,79.26
2022-09-25T14:35:13.961Z,79.14
2022-09-25T14:37:57.420Z,79.53
2022-09-25T14:40:34.077Z,80.24
2022-09-25T14:43:14.946Z,80.60
2022-09-25T14:46:02.097Z,80.11
2022-09-25T14:48:35.163Z,80.27
2022-09-25T14:51:06.720Z,80.78
2022-09-25T14:53:38.305Z,80.81
2022-09-25T14:56:09.546Z,80.98
2022-09-25T14:58:38.585Z,81.25
2022-09-25T15:01:15.055Z,80.59
2022-09-25T15:03:46.848Z,81.00
2022-09-25T15:06:25.310Z,81.52
2022-09-25T15:08:53.835Z,82.00
2022-09-25T15:11:22.999Z,82.94
2022-09-25T15:13:51.215Z,83.21
2022-09-25T15:16:38.719Z,82.84
2022-09-25T15:19:12.596Z,82.94
2022-09-25T15:21:43.968Z,83.33
2022-09-25T15:24:16.204Z,83.04
2022-09-25T15:26:49.846Z,83.05
2022-09-25T15:29:23.380Z,83.77
2022-09-25T15:31:52.374Z,84.21
2022-09-25T15:34:25.217Z,84.29
2022-09-25T15:36:55.216Z,84.32
2022-09-25T15:39:25.512Z,84.55
2022-09-25T15:41:53.899Z,85.46
2022-09-25T15:44:23.725Z,85.57
2022-09-25T15:46:52.886Z,86.11
2022-09-25T15:49:23.501Z,86.46
2022-09-25T15:51:58.306Z,86.24
2022-09-25T15:54:33.986Z,86.46
2022-09-25T15:57:07.162Z,86.92
2022-09-25T15:59:37.313Z,87.44
2022-09-25T16:02:35.842Z,87.45
2022-09-25T16:05:04.329Z,88.53
2022-09-25T16:07:36.259Z,88.37
2022-09-25T16:10:07.811Z,88.54
2022-09-25T16:12:49.360Z,88.88
2022-09-25T16:15:46.806Z,87.96
2022-09-25T16:18:27.548Z,88.99
2022-09-25T16:20:58.063Z,89.85
2022-09-25T16:23:30.258Z,89.91
2022-09-25T16:25:58.769Z,90.02
2022-09-25T16:28:29.463Z,89.84
2022-09-25T16:31:00.508Z,89.99
2022-09-25T16:33:31.297Z,90.74
2022-09-25T16:36:18.185Z,91.06
2022-09-25T16:39:06.199Z,91.13
2022-09-25T16:41:35.997Z,91.69
2022-09-25T16:44:14.257Z,91.18
2022-09-25T16:46:42.915Z,92.20
2022-09-25T16:49:12.320Z,92.38
2022-09-25T16:51:45.992Z,92.04
2022-09-25T16:54:17.276Z,92.58
2022-09-25T16:56:48.290Z,92.88
2022-09-25T16:59:18.727Z,92.68
2022-09-25T17:01:48.185Z,93.24
2022-09-25T17:04:16.978Z,93.56
2022-09-25T17:06:47.557Z,93.22
2022-09-25T17:09:18.757Z,95.18
2022-09-25T17:11:50.117Z,94.70
2022-09-25T17:14:23.992Z,94.34
2022-09-25T17:16:52.926Z,94.56
2022-09-25T17:19:21.717Z,94.32
2022-09-25T17:21:52.233Z,95.09
2022-09-25T17:24:23.837Z,95.39
2022-09-25T17:26:52.767Z,95.38
2022-09-25T17:29:21.044Z,95.42
2022-09-25T17:31:49.265Z,95.47
2022-09-25T17:34:18.941Z,95.51
2022-09-25T17:36:47.214Z,96.18
2022-09-25T17:39:15.482Z,95.73
2022-09-25T17:41:45.249Z,95.01
2022-09-25T17:44:16.925Z,95.32
2022-09-25T17:46:45.222Z,95.88
2022-09-25T17:49:13.570Z,95.98
2022-09-25T17:51:42.157Z,96.02
2022-09-25T17:54:11.953Z,96.28
2022-09-25T17:56:42.627Z,96.77
2022-09-25T17:59:12.275Z,96.75
2022-09-25T18:01:40.704Z,97.29
2022-09-25T18:04:19.464Z,96.98
2022-09-25T18:06:47.942Z,97.73
2022-09-25T18:09:16.425Z,97.74
2022-09-25T18:11:44.913Z,98.39
2022-09-25T18:14:16.682Z,98.04
2022-09-25T18:16:45.849Z,98.83
2022-09-25T18:19:36.139Z,99.76
2022-09-25T18:22:22.520Z,99.98
2022-09-25T18:24:54.633Z,99.71
2022-09-25T18:27:23.029Z,100.00
2022-09-25T18:29:52.814Z,100.00
2022-09-25T18:32:21.052Z,100.00
2022-09-25T18:34:49.260Z,100.00
2022-09-25T18:37:17.698Z,100.00
2022-09-25T18:39:48.019Z,100.00
2022-09-25T18:42:16.393Z,100.00
2022-09-25T18:44:44.595Z,100.00
2022-09-25T18:47:14.947Z,100.00
2022-09-25T18:49:43.794Z,100.00
2022-09-25T18:52:11.919Z,100.00
2022-09-25T18:54:42.532Z,100.00
2022-09-25T18:57:11.742Z,100.00
2022-09-25T18:59:39.991Z,100.00
2022-09-25T19:02:11.511Z,100.00
2022-09-25T19:04:41.179Z,100.00
2022-09-25T19:07:09.667Z,100.00
2022-09-25T19:09:38.034Z,100.00
2022-09-25T19:12:07.402Z,100.00
2022-09-25T19:14:36.037Z,100.00
2022-09-25T19:17:04.901Z,100.00
2022-09-25T19:19:35.453Z,100.00
2022-09-25T19:22:05.100Z,100.00
2022-09-25T19:24:36.614Z,100.00
2022-09-25T19:27:06.534Z,100.00
2022-09-25T19:29:36.333Z,100.00
2022-09-25T19:32:05.904Z,100.00
2022-09-25T19:34:35.011Z,100.00
2022-09-25T19:37:04.614Z,100.00
2022-09-25T19:39:54.316Z,100.00
2022-09-25T19:42:22.977Z,100.00
2022-09-25T19:44:51.205Z,100.00
2022-09-25T19:47:19.602Z,100.00
2022-09-25T19:49:47.840Z,100.00
2022-09-25T19:52:20.573Z,100.00
2022-09-25T19:54:48.801Z,100.00
2022-09-25T19:57:17.025Z,100.00
2022-09-25T19:59:45.228Z,100.00
2022-09-25T20:02:14.006Z,100.00
2022-09-25T20:04:44.080Z,100.00
2022-09-25T20:07:15.567Z,100.00
2022-09-25T20:09:45.371Z,100.00
2022-09-25T20:12:13.538Z,100.00
2022-09-25T20:14:41.653Z,100.00
2022-09-25T20:17:10.402Z,100.00
2022-09-25T20:19:38.710Z,100.00
2022-09-25T20:22:06.854Z,100.00
2022-09-25T20:24:35.033Z,100.00
2022-09-25T20:27:04.600Z,100.00
2022-09-25T20:29:32.909Z,100.00
2022-09-25T20:32:01.267Z,100.00
2022-09-25T20:34:29.424Z,100.00
2022-09-25T20:36:57.540Z,100.00
2022-09-25T20:39:27.517Z,100.00
2022-09-25T20:41:55.997Z,100.00
2022-09-25T20:44:25.442Z,100.00
2022-09-25T20:46:53.625Z,100.00
2022-09-25T20:49:22.183Z,100.00
2022-09-25T20:51:50.369Z,100.00
2022-09-25T20:54:18.523Z,100.00
2022-09-25T20:56:46.995Z,100.00
2022-09-25T20:59:18.169Z,100.00
2022-09-25T21:01:47.937Z,100.00
2022-09-25T21:04:18.235Z,100.00
2022-09-25T21:06:46.757Z,100.00
2022-09-25T21:09:20.587Z,100.00
2022-09-25T21:11:48.977Z,100.00
2022-09-25T21:14:19.652Z,100.00
2022-09-25T21:16:49.982Z,100.00
2022-09-25T21:19:19.714Z,100.00
2022-09-25T21:21:48.519Z,100.00
2022-09-25T21:24:18.392Z,100.00
2022-09-25T21:26:46.944Z,100.00
2022-09-25T21:29:16.892Z,100.00
2022-09-25T21:31:49.847Z,100.00
2022-09-25T21:34:20.583Z,100.00
2022-09-25T21:36:49.229Z,100.00
2022-09-25T21:39:19.099Z,100.00
2022-09-25T21:41:48.905Z,100.00
2022-09-25T21:44:19.254Z,100.00
2022-09-25T21:46:47.751Z,100.00
2022-09-25T21:49:17.590Z,100.00
2022-09-25T21:51:48.152Z,100.00
2022-09-25T21:54:17.158Z,100.00
2022-09-25T21:56:45.556Z,100.00
2022-09-25T21:59:14.305Z,100.00
2022-09-25T22:01:43.178Z,100.00
2022-09-25T22:04:13.592Z,100.00
2022-09-25T22:06:43.802Z,100.00
2022-09-25T22:09:15.022Z,100.00
2022-09-25T22:11:43.699Z,100.00
2022-09-25T22:14:16.130Z,100.00
2022-09-25T22:16:46.094Z,100.00
2022-09-25T22:19:16.350Z,100.00
2022-09-25T22:21:45.958Z,100.00
2022-09-25T22:24:16.817Z,100.00
2022-09-25T22:26:46.351Z,100.00
2022-09-25T22:29:14.755Z,100.00
2022-09-25T22:31:44.325Z,100.00
2022-09-25T22:34:17.349Z,100.00
2022-09-25T22:36:45.721Z,100.00
2022-09-25T22:39:17.574Z,100.00
2022-09-25T22:41:46.033Z,100.00
2022-09-25T22:44:14.446Z,100.00
2022-09-25T22:46:42.670Z,100.00
2022-09-25T22:49:10.719Z,100.00
2022-09-25T22:51:38.944Z,100.00
2022-09-25T22:54:07.126Z,100.00
2022-09-25T22:56:37.026Z,100.00
2022-09-25T22:59:07.198Z,100.00
2022-09-25T23:01:46.962Z,100.00
2022-09-25T23:04:16.749Z,100.00
2022-09-25T23:06:45.387Z,100.00
2022-09-25T23:09:15.505Z,100.00
2022-09-25T23:11:45.601Z,100.00
2022-09-25T23:14:17.089Z,100.00
2022-09-25T23:16:46.185Z,100.00
2022-09-25T23:19:15.016Z,100.00
2022-09-25T23:21:43.833Z,100.00
2022-09-25T23:24:13.335Z,100.00
2022-09-25T23:26:41.830Z,100.00
2022-09-25T23:29:12.957Z,100.00
2022-09-25T23:31:41.402Z,100.00
2022-09-25T23:34:09.800Z,100.00
2022-09-25T23:36:38.560Z,100.00
2022-09-25T23:39:08.545Z,100.00
2022-09-25T23:41:38.438Z,100.00
2022-09-25T23:44:08.263Z,100.00
2022-09-25T23:46:41.712Z,100.00
2022-09-25T23:49:10.764Z,100.00
2022-09-25T23:51:39.354Z,100.00
2022-09-25T23:54:07.593Z,100.00
2022-09-25T23:56:36.398Z,100.00
2022-09-25T23:59:05.283Z,100.00
